Via Padova 77, Lido di Jesolo (Venezia)

La nostra Estate sotto il sole di Jesolo

 

Quest'estate vi aspettano vacanze indimenticabili, giornate di sole da maggio a settembre. Venite a rilassarvi ed a godere dei tramonti meravigliosi, dai colori sgargianti e caldi, in una delle location più suggestive del litorale di Jesolo Lido, il Faro.

 

Giorno Ora Previsione Temperatura Umidità Vento
  Sab 19 18:00 22.39° 77.1% 4.99 Km/h
  Sab 19 21:00 20.42° 84.8% 5.30 Km/h
  Dom 20 00:00 17.59° 94.2% 8.49 Km/h
  Dom 20 03:00 19.18° 85.2% 8.69 Km/h
  Dom 20 06:00 18.12° 83.4% 4.37 Km/h
  Dom 20 09:00 23.17° 56.5% 6.28 Km/h
  Dom 20 12:00 25.37° 46.3% 5.76 Km/h
  Dom 20 15:00 26.35° 39.1% 4.37 Km/h
  Dom 20 18:00 24.79° 40.3% 3.76 Km/h
  Dom 20 21:00 24.33° 43.0% 8.28 Km/h
  Lun 21 00:00 22.11° 50.5% 4.63 Km/h
  Lun 21 03:00 19.60° 47.1% 4.06 Km/h
  Lun 21 06:00 18.81° 51.0% 3.70 Km/h
  Lun 21 09:00 23.78° 33.6% 3.34 Km/h
  Lun 21 12:00 26.99° 25.4% 2.83 Km/h
  Lun 21 15:00 26.51° 30.2% 3.04 Km/h
  Lun 21 18:00 24.65° 30.5% 2.37 Km/h
  Lun 21 21:00 21.77° 42.4% 3.60 Km/h
  Mar 22 00:00 23.10° 43.6% 6.43 Km/h
  Mar 22 03:00 18.29° 59.1% 2.52 Km/h
  Mar 22 06:00 18.91° 60.4% 2.73 Km/h
VERIFICA DISPONIBILITA
I NOSTRI CONTATTI
fatti furbo fatti furbo